createdAt,value
2019-02-10T00:00:03.261Z,99.99
2019-02-10T00:01:03.246Z,99.99
2019-02-10T00:02:03.231Z,99.99
2019-02-10T00:03:03.221Z,99.99
2019-02-10T00:04:03.206Z,99.99
2019-02-10T00:05:03.201Z,99.99
2019-02-10T00:06:03.183Z,99.99
2019-02-10T00:07:03.168Z,99.99
2019-02-10T00:08:03.155Z,99.99
2019-02-10T00:09:03.139Z,99.99
2019-02-10T00:10:03.126Z,99.99
2019-02-10T00:11:03.114Z,99.99
2019-02-10T00:12:03.100Z,99.99
2019-02-10T00:13:03.084Z,99.99
2019-02-10T00:14:03.077Z,99.99
2019-02-10T00:15:03.060Z,99.99
2019-02-10T00:16:03.054Z,99.99
2019-02-10T00:17:03.034Z,99.99
2019-02-10T00:18:03.019Z,99.99
2019-02-10T00:19:03.009Z,99.99
2019-02-10T00:20:02.995Z,99.99
2019-02-10T00:21:02.993Z,99.99
2019-02-10T00:22:02.968Z,99.99
2019-02-10T00:23:02.953Z,99.99
2019-02-10T00:24:02.941Z,99.99
2019-02-10T00:25:02.926Z,99.99
2019-02-10T00:26:02.916Z,99.99
2019-02-10T00:27:02.902Z,99.99
2019-02-10T00:28:02.889Z,99.99
2019-02-10T00:29:02.875Z,99.99
2019-02-10T00:30:02.860Z,99.99
2019-02-10T00:31:02.849Z,99.99
2019-02-10T00:32:02.836Z,99.99
2019-02-10T00:33:02.823Z,99.99
2019-02-10T00:34:02.811Z,99.99
2019-02-10T00:35:02.794Z,99.99
2019-02-10T00:36:02.786Z,99.99
2019-02-10T00:37:02.773Z,99.99
2019-02-10T00:38:02.758Z,99.99
2019-02-10T00:39:02.746Z,99.99
2019-02-10T00:40:02.734Z,99.99
2019-02-10T00:41:02.716Z,99.99
2019-02-10T00:42:02.705Z,99.99
2019-02-10T00:43:02.693Z,99.99
2019-02-10T00:44:02.677Z,99.99
2019-02-10T00:45:02.667Z,99.99
2019-02-10T00:46:02.653Z,99.99
2019-02-10T00:47:02.639Z,99.99
2019-02-10T00:48:02.626Z,99.99
2019-02-10T00:49:02.610Z,99.99
2019-02-10T00:50:02.600Z,99.99
2019-02-10T00:51:02.588Z,99.99
2019-02-10T00:52:02.576Z,99.99
2019-02-10T00:53:02.560Z,99.99
2019-02-10T00:54:02.546Z,99.99
2019-02-10T00:55:02.535Z,99.99
2019-02-10T00:56:02.522Z,99.99
2019-02-10T00:57:02.508Z,99.99
2019-02-10T00:58:02.494Z,99.99
2019-02-10T00:59:02.483Z,99.99
2019-02-10T01:00:02.470Z,99.99
2019-02-10T01:01:02.457Z,99.99
2019-02-10T01:02:02.444Z,99.99
2019-02-10T01:03:02.430Z,99.99
2019-02-10T01:04:02.417Z,99.99
2019-02-10T01:05:02.404Z,99.99
2019-02-10T01:06:02.391Z,99.99
2019-02-10T01:07:02.378Z,99.99
2019-02-10T01:08:02.365Z,99.99
2019-02-10T01:09:02.350Z,99.99
2019-02-10T01:10:02.336Z,99.99
2019-02-10T01:11:02.324Z,99.99
2019-02-10T01:12:02.314Z,99.99
2019-02-10T01:13:02.296Z,99.99
2019-02-10T01:14:02.286Z,99.99
2019-02-10T01:15:02.274Z,99.99
2019-02-10T01:16:02.260Z,99.99
2019-02-10T01:17:02.246Z,99.99
2019-02-10T01:18:02.233Z,99.99
2019-02-10T01:19:02.221Z,99.99
2019-02-10T01:20:02.207Z,99.99
2019-02-10T01:21:02.193Z,99.99
2019-02-10T01:22:02.179Z,99.99
2019-02-10T01:23:02.169Z,99.99
2019-02-10T01:24:02.155Z,99.99
2019-02-10T01:25:02.144Z,99.99
2019-02-10T01:26:02.128Z,99.99
2019-02-10T01:27:02.115Z,99.99
2019-02-10T01:28:02.101Z,99.99
2019-02-10T01:29:02.091Z,99.99
2019-02-10T01:30:02.076Z,99.99
2019-02-10T01:31:02.064Z,99.99
2019-02-10T01:32:02.050Z,99.99
2019-02-10T01:33:02.036Z,99.99
2019-02-10T01:34:02.024Z,99.99
2019-02-10T01:35:02.015Z,99.99
2019-02-10T01:36:01.998Z,99.99
2019-02-10T01:37:01.984Z,99.99
2019-02-10T01:38:01.972Z,99.99
2019-02-10T01:39:01.960Z,99.99
2019-02-10T01:40:01.949Z,99.99
2019-02-10T01:41:01.934Z,99.99
2019-02-10T01:42:01.921Z,99.99
2019-02-10T01:43:01.906Z,99.99
2019-02-10T01:44:01.891Z,99.99
2019-02-10T01:45:01.881Z,99.99
2019-02-10T01:46:01.868Z,99.99
2019-02-10T01:47:01.855Z,99.99
2019-02-10T01:48:01.841Z,99.99
2019-02-10T01:49:01.828Z,99.99
2019-02-10T01:50:01.814Z,99.99
2019-02-10T01:51:01.802Z,99.99
2019-02-10T01:52:01.789Z,99.99
2019-02-10T01:53:01.775Z,99.99
2019-02-10T01:54:01.763Z,99.99
2019-02-10T01:55:01.750Z,99.99
2019-02-10T01:56:01.738Z,99.99
2019-02-10T01:57:01.724Z,99.99
2019-02-10T01:58:01.709Z,99.99
2019-02-10T01:59:01.698Z,99.99
2019-02-10T02:00:01.684Z,99.99
2019-02-10T02:01:01.670Z,99.99
2019-02-10T02:02:01.657Z,99.99
2019-02-10T02:03:01.647Z,99.99
2019-02-10T02:04:01.633Z,99.99
2019-02-10T02:05:01.619Z,99.99
2019-02-10T02:06:01.605Z,99.99
2019-02-10T02:07:01.594Z,99.99
2019-02-10T02:08:01.580Z,99.99
2019-02-10T02:09:01.566Z,99.99
2019-02-10T02:10:01.559Z,99.99
2019-02-10T02:11:01.540Z,99.99
2019-02-10T02:12:01.527Z,99.99
2019-02-10T02:13:01.514Z,99.99
2019-02-10T02:14:01.503Z,99.99
2019-02-10T02:15:01.490Z,99.99
2019-02-10T02:16:01.477Z,99.99
2019-02-10T02:17:01.463Z,99.99
2019-02-10T02:18:01.450Z,99.99
2019-02-10T02:19:01.436Z,99.99
2019-02-10T02:20:01.427Z,99.99
2019-02-10T02:21:01.409Z,99.99
2019-02-10T02:22:01.399Z,99.99
2019-02-10T02:23:01.384Z,99.99
2019-02-10T02:24:01.370Z,99.99
2019-02-10T02:25:01.357Z,99.99
2019-02-10T02:26:01.345Z,99.99
2019-02-10T02:27:01.332Z,99.99
2019-02-10T02:28:01.319Z,99.99
2019-02-10T02:29:01.304Z,99.99
2019-02-10T02:30:01.300Z,99.99
2019-02-10T02:31:01.278Z,99.99
2019-02-10T02:32:01.264Z,99.99
2019-02-10T02:33:01.254Z,99.99
2019-02-10T02:34:01.239Z,99.99
2019-02-10T02:35:01.226Z,99.99
2019-02-10T02:36:01.215Z,99.99
2019-02-10T02:37:07.713Z,99.99
2019-02-10T02:38:01.187Z,99.99
2019-02-10T02:39:01.176Z,99.99
2019-02-10T02:40:01.161Z,99.99
2019-02-10T02:41:01.146Z,99.99
2019-02-10T02:42:01.135Z,99.99
2019-02-10T02:43:01.120Z,99.99
2019-02-10T02:44:01.108Z,99.99
2019-02-10T02:45:01.093Z,99.99
2019-02-10T02:46:01.078Z,99.99
2019-02-10T02:47:01.067Z,99.99
2019-02-10T02:48:01.054Z,99.99
2019-02-10T02:49:01.040Z,99.99
2019-02-10T02:50:01.027Z,99.99
2019-02-10T02:51:01.177Z,99.99
2019-02-10T02:52:01.000Z,99.99
2019-02-10T02:53:00.987Z,99.99
2019-02-10T02:54:00.972Z,99.99
2019-02-10T02:55:00.960Z,99.99
2019-02-10T02:56:00.948Z,99.99
2019-02-10T02:57:00.936Z,99.99
2019-02-10T02:58:00.919Z,99.99
2019-02-10T02:59:00.907Z,99.99
2019-02-10T03:00:00.895Z,99.99
2019-02-10T03:01:00.882Z,99.99
2019-02-10T03:02:00.870Z,99.99
2019-02-10T03:03:00.854Z,99.99
2019-02-10T03:04:00.842Z,99.99
2019-02-10T03:05:00.829Z,99.99
2019-02-10T03:06:00.814Z,99.99
2019-02-10T03:07:00.807Z,99.99
2019-02-10T03:08:00.821Z,99.99
2019-02-10T03:09:00.774Z,99.99
2019-02-10T03:10:00.759Z,99.99
2019-02-10T03:11:00.748Z,99.99
2019-02-10T03:12:00.733Z,99.99
2019-02-10T03:13:00.720Z,99.99
2019-02-10T03:14:00.705Z,99.99
2019-02-10T03:15:00.694Z,99.99
2019-02-10T03:16:00.679Z,99.99
2019-02-10T03:17:00.665Z,99.99
2019-02-10T03:18:00.653Z,99.99
2019-02-10T03:19:00.639Z,99.99
2019-02-10T03:20:00.628Z,99.99
2019-02-10T03:21:00.612Z,99.99
2019-02-10T03:22:00.604Z,99.99
2019-02-10T03:23:00.588Z,99.99
2019-02-10T03:24:00.572Z,99.99
2019-02-10T03:25:00.597Z,99.99
2019-02-10T03:26:00.542Z,99.99
2019-02-10T03:27:00.535Z,99.99
2019-02-10T03:28:00.518Z,99.99
2019-02-10T03:29:00.504Z,99.99
2019-02-10T03:30:00.491Z,99.99
2019-02-10T03:31:00.480Z,99.99
2019-02-10T03:32:00.465Z,99.99
2019-02-10T03:33:00.453Z,99.99
2019-02-10T03:34:00.437Z,99.99
2019-02-10T03:35:00.424Z,99.99
2019-02-10T03:36:00.409Z,99.99
2019-02-10T03:37:00.402Z,99.99
2019-02-10T03:38:00.387Z,99.99
2019-02-10T03:39:00.370Z,99.99
2019-02-10T03:40:00.375Z,99.99
2019-02-10T03:41:00.348Z,99.99
2019-02-10T03:42:00.327Z,99.99
2019-02-10T03:43:00.315Z,99.99
2019-02-10T03:44:00.302Z,99.99
2019-02-10T03:45:00.314Z,99.99
2019-02-10T03:46:00.274Z,99.99
2019-02-10T03:47:00.261Z,99.99
2019-02-10T03:48:00.247Z,99.99
2019-02-10T03:49:00.233Z,99.99
2019-02-10T03:50:00.690Z,99.99
2019-02-10T03:51:00.208Z,99.99
2019-02-10T03:52:00.191Z,99.99
2019-02-10T03:53:00.181Z,99.99
2019-02-10T03:54:00.168Z,99.99
2019-02-10T03:55:00.379Z,99.99
2019-02-10T03:56:00.138Z,99.99
2019-02-10T03:57:00.124Z,99.99
2019-02-10T03:58:00.111Z,99.99
2019-02-10T03:59:00.098Z,99.99
2019-02-10T04:00:00.147Z,99.99
2019-02-10T04:01:00.074Z,99.99
2019-02-10T04:02:00.056Z,99.99
2019-02-10T04:03:00.046Z,99.99
2019-02-10T04:04:00.031Z,99.99
2019-02-10T04:05:00.017Z,99.99
2019-02-10T04:06:00.004Z,99.99
2019-02-10T04:06:59.987Z,99.99
2019-02-10T04:07:59.975Z,99.99
2019-02-10T04:08:59.959Z,99.99
2019-02-10T04:09:59.947Z,99.99
2019-02-10T04:10:59.934Z,99.99
2019-02-10T04:11:59.923Z,99.99
2019-02-10T04:12:59.909Z,99.99
2019-02-10T04:13:59.895Z,99.99
2019-02-10T04:14:59.879Z,99.99
2019-02-10T04:15:59.866Z,99.99
2019-02-10T04:16:59.852Z,99.99
2019-02-10T04:17:59.838Z,99.99
2019-02-10T04:18:59.823Z,99.99
2019-02-10T04:19:59.812Z,99.99
2019-02-10T04:20:59.799Z,99.99
2019-02-10T04:21:59.783Z,99.99
2019-02-10T04:22:59.770Z,99.99
2019-02-10T04:23:59.762Z,99.99
2019-02-10T04:24:59.741Z,99.99
2019-02-10T04:25:59.728Z,99.99
2019-02-10T04:26:59.716Z,99.99
2019-02-10T04:27:59.700Z,99.99
2019-02-10T04:28:59.687Z,99.99
2019-02-10T04:29:59.673Z,99.99
2019-02-10T04:30:59.658Z,99.99
2019-02-10T04:31:59.643Z,99.99
2019-02-10T04:32:59.630Z,99.99
2019-02-10T04:33:59.622Z,99.99
2019-02-10T04:34:59.603Z,99.99
2019-02-10T04:35:59.588Z,99.99
2019-02-10T04:36:59.577Z,99.99
2019-02-10T04:37:59.561Z,99.99
2019-02-10T04:38:59.545Z,99.99
2019-02-10T04:39:59.533Z,99.99
2019-02-10T04:40:59.517Z,99.99
2019-02-10T04:41:59.505Z,99.99
2019-02-10T04:42:59.493Z,99.99
2019-02-10T04:43:59.477Z,99.99
2019-02-10T04:44:59.463Z,99.99
2019-02-10T04:45:59.447Z,99.99
2019-02-10T04:46:59.434Z,99.99
2019-02-10T04:47:59.419Z,99.99
2019-02-10T04:48:59.406Z,99.99
2019-02-10T04:49:59.389Z,99.99
2019-02-10T04:50:59.382Z,99.99
2019-02-10T04:51:59.364Z,99.99
2019-02-10T04:52:59.348Z,99.99
2019-02-10T04:53:59.337Z,99.99
2019-02-10T04:54:59.320Z,99.99
2019-02-10T04:55:59.306Z,99.99
2019-02-10T04:56:59.292Z,99.99
2019-02-10T04:57:59.277Z,99.99
2019-02-10T04:58:59.264Z,99.99
2019-02-10T04:59:59.250Z,99.99
2019-02-10T05:00:59.234Z,99.99
2019-02-10T05:01:59.223Z,99.99
2019-02-10T05:02:59.207Z,99.99
2019-02-10T05:03:59.192Z,99.99
2019-02-10T05:04:59.178Z,99.99
2019-02-10T05:05:59.163Z,99.99
2019-02-10T05:06:59.150Z,99.99
2019-02-10T05:07:59.138Z,99.99
2019-02-10T05:08:59.123Z,99.99
2019-02-10T05:09:59.108Z,99.99
2019-02-10T05:10:59.099Z,99.99
2019-02-10T05:11:59.083Z,99.99
2019-02-10T05:12:59.066Z,99.99
2019-02-10T05:13:59.050Z,99.99
2019-02-10T05:14:59.042Z,99.99
2019-02-10T05:15:59.035Z,99.99
2019-02-10T05:16:59.013Z,99.99
2019-02-10T05:17:59.000Z,99.99
2019-02-10T05:18:58.988Z,99.99
2019-02-10T05:19:58.969Z,99.99
2019-02-10T05:20:58.954Z,99.99
2019-02-10T05:21:58.940Z,99.99
2019-02-10T05:22:58.928Z,99.99
2019-02-10T05:24:03.485Z,99.99
2019-02-10T05:24:58.899Z,99.99
2019-02-10T05:25:58.890Z,99.99
2019-02-10T05:26:58.884Z,99.99
2019-02-10T05:27:58.858Z,99.99
2019-02-10T05:28:58.854Z,99.99
2019-02-10T05:29:58.835Z,99.99
2019-02-10T05:30:58.816Z,99.99
2019-02-10T05:31:58.800Z,99.99
2019-02-10T05:32:58.791Z,99.99
2019-02-10T05:33:58.779Z,99.99
2019-02-10T05:34:58.759Z,99.99
2019-02-10T05:35:58.747Z,99.99
2019-02-10T05:36:58.731Z,99.99
2019-02-10T05:38:04.207Z,99.99
2019-02-10T05:38:58.704Z,99.99
2019-02-10T05:39:58.691Z,99.99
2019-02-10T05:40:58.675Z,99.99
2019-02-10T05:41:58.666Z,99.99
2019-02-10T05:42:58.657Z,99.99
2019-02-10T05:43:58.638Z,99.99
2019-02-10T05:44:58.621Z,99.99
2019-02-10T05:45:58.611Z,99.99
2019-02-10T05:46:58.593Z,99.99
2019-02-10T05:47:58.584Z,99.99
2019-02-10T05:48:58.565Z,99.99
2019-02-10T05:49:58.554Z,99.99
2019-02-10T05:50:58.540Z,99.99
2019-02-10T05:51:58.607Z,99.99
2019-02-10T05:52:58.513Z,99.99
2019-02-10T05:53:58.507Z,99.99
2019-02-10T05:54:58.483Z,99.99
2019-02-10T05:55:58.471Z,99.99
2019-02-10T05:56:58.458Z,99.99
2019-02-10T05:57:58.444Z,99.99
2019-02-10T05:58:58.460Z,99.99
2019-02-10T05:59:58.417Z,99.99
2019-02-10T06:00:58.402Z,99.99
2019-02-10T06:01:58.386Z,99.99
2019-02-10T06:02:58.373Z,99.99
2019-02-10T06:03:58.359Z,99.99
2019-02-10T06:04:58.348Z,99.99
2019-02-10T06:05:58.332Z,99.99
2019-02-10T06:06:58.323Z,99.99
2019-02-10T06:07:58.308Z,99.99
2019-02-10T06:08:58.299Z,99.99
2019-02-10T06:09:58.283Z,99.99
2019-02-10T06:10:58.268Z,99.99
2019-02-10T06:11:58.252Z,99.99
2019-02-10T06:12:58.248Z,99.99
2019-02-10T06:13:58.222Z,99.99
2019-02-10T06:14:58.213Z,99.99
2019-02-10T06:15:58.199Z,99.99
2019-02-10T06:16:58.183Z,99.99
2019-02-10T06:17:58.170Z,99.99
2019-02-10T06:18:58.156Z,99.99
2019-02-10T06:19:58.146Z,99.99
2019-02-10T06:20:58.130Z,99.99
2019-02-10T06:21:58.117Z,99.99
2019-02-10T06:22:58.102Z,99.99
2019-02-10T06:23:58.090Z,99.99
2019-02-10T06:24:58.074Z,99.99
2019-02-10T06:25:58.063Z,99.99
2019-02-10T06:26:58.058Z,99.99
2019-02-10T06:27:58.039Z,99.99
2019-02-10T06:28:58.022Z,99.99
2019-02-10T06:29:58.009Z,99.99
2019-02-10T06:30:57.994Z,99.99
2019-02-10T06:31:57.980Z,99.99
2019-02-10T06:32:57.968Z,99.99
2019-02-10T06:33:57.955Z,99.99
2019-02-10T06:34:57.944Z,99.99
2019-02-10T06:35:57.929Z,99.99
2019-02-10T06:36:57.921Z,99.99
2019-02-10T06:37:57.903Z,99.99
2019-02-10T06:38:57.892Z,99.99
2019-02-10T06:39:57.874Z,99.99
2019-02-10T06:40:57.859Z,99.99
2019-02-10T06:41:57.847Z,99.99
2019-02-10T06:42:57.832Z,99.99
2019-02-10T06:43:57.821Z,99.99
2019-02-10T06:44:57.805Z,99.99
2019-02-10T06:45:57.794Z,99.99
2019-02-10T06:46:57.779Z,99.99
2019-02-10T06:47:57.921Z,99.99
2019-02-10T06:48:57.752Z,99.99
2019-02-10T06:49:57.738Z,99.99
2019-02-10T06:50:57.729Z,99.99
2019-02-10T06:51:57.712Z,99.99
2019-02-10T06:52:57.700Z,99.99
2019-02-10T06:53:57.685Z,99.99
2019-02-10T06:54:57.673Z,99.99
2019-02-10T06:55:57.661Z,99.99
2019-02-10T06:56:57.651Z,99.99
2019-02-10T06:57:57.632Z,99.99
2019-02-10T06:58:57.619Z,99.99
2019-02-10T06:59:57.609Z,99.99
2019-02-10T07:00:57.593Z,99.99
2019-02-10T07:01:57.581Z,99.99
2019-02-10T07:02:57.571Z,99.99
2019-02-10T07:03:57.555Z,99.99
2019-02-10T07:04:57.540Z,99.99
2019-02-10T07:05:57.526Z,99.99
2019-02-10T07:06:57.515Z,99.99
2019-02-10T07:07:57.500Z,99.99
2019-02-10T07:08:57.490Z,99.99
2019-02-10T07:09:57.473Z,99.99
2019-02-10T07:10:57.460Z,99.99
2019-02-10T07:11:57.450Z,99.99
2019-02-10T07:12:57.432Z,99.99
2019-02-10T07:13:57.419Z,99.99
2019-02-10T07:14:57.408Z,99.99
2019-02-10T07:15:57.396Z,99.99
2019-02-10T07:16:57.380Z,99.99
2019-02-10T07:17:57.369Z,99.99
2019-02-10T07:18:57.354Z,99.99
2019-02-10T07:19:57.351Z,99.99
2019-02-10T07:20:57.328Z,99.99
2019-02-10T07:21:57.314Z,99.99
2019-02-10T07:22:57.303Z,99.99
2019-02-10T07:23:57.288Z,99.99
2019-02-10T07:24:57.277Z,99.99
2019-02-10T07:25:57.262Z,99.99
2019-02-10T07:26:57.249Z,99.99
2019-02-10T07:27:57.235Z,99.99
2019-02-10T07:28:57.222Z,99.99
2019-02-10T07:29:57.208Z,99.99
2019-02-10T07:30:57.196Z,99.99
2019-02-10T07:31:57.184Z,99.99
2019-02-10T07:32:57.171Z,99.99
2019-02-10T07:33:58.515Z,99.99
2019-02-10T07:34:57.147Z,99.99
2019-02-10T07:35:57.132Z,99.99
2019-02-10T07:36:57.117Z,99.99
2019-02-10T07:37:57.105Z,99.99
2019-02-10T07:38:57.091Z,99.99
2019-02-10T07:39:57.079Z,99.99
2019-02-10T07:40:57.065Z,99.99
2019-02-10T07:41:57.055Z,99.99
2019-02-10T07:42:57.041Z,99.99
2019-02-10T07:43:57.029Z,99.99
2019-02-10T07:44:57.012Z,99.99
2019-02-10T07:45:57.002Z,99.99
2019-02-10T07:46:56.989Z,99.99
2019-02-10T07:47:56.975Z,99.99
2019-02-10T07:48:56.962Z,99.99
2019-02-10T07:49:56.950Z,99.99
2019-02-10T07:50:56.937Z,99.99
2019-02-10T07:51:56.923Z,99.99
2019-02-10T07:52:56.910Z,99.99
2019-02-10T07:53:56.896Z,99.99
2019-02-10T07:54:56.882Z,99.99
2019-02-10T07:55:56.870Z,99.99
2019-02-10T07:56:56.856Z,99.99
2019-02-10T07:57:56.845Z,99.99
2019-02-10T07:58:56.832Z,99.99
2019-02-10T07:59:56.819Z,99.99
2019-02-10T08:00:56.806Z,99.99
2019-02-10T08:01:56.793Z,99.99
2019-02-10T08:02:56.779Z,99.99
2019-02-10T08:03:56.766Z,99.99
2019-02-10T08:04:56.753Z,99.99
2019-02-10T08:05:56.740Z,99.99
2019-02-10T08:06:56.728Z,99.99
2019-02-10T08:07:56.714Z,99.99
2019-02-10T08:08:56.705Z,99.99
2019-02-10T08:09:56.689Z,99.99
2019-02-10T08:10:56.680Z,98.88
2019-02-10T08:11:56.665Z,99.99
2019-02-10T08:12:56.650Z,99.64
2019-02-10T08:13:56.636Z,99.93
2019-02-10T08:14:56.625Z,99.99
2019-02-10T08:15:56.613Z,99.64
2019-02-10T08:16:56.602Z,98.50
2019-02-10T08:17:56.586Z,99.64
2019-02-10T08:18:56.574Z,98.79
2019-02-10T08:19:56.561Z,99.55
2019-02-10T08:20:56.548Z,99.99
2019-02-10T08:21:56.537Z,99.99
2019-02-10T08:22:56.524Z,99.99
2019-02-10T08:23:56.513Z,99.99
2019-02-10T08:24:56.498Z,99.99
2019-02-10T08:25:56.485Z,99.99
2019-02-10T08:26:56.473Z,97.88
2019-02-10T08:27:56.482Z,97.22
2019-02-10T08:28:56.447Z,97.79
2019-02-10T08:29:56.434Z,99.99
2019-02-10T08:30:56.422Z,99.99
2019-02-10T08:31:56.408Z,99.99
2019-02-10T08:32:56.398Z,99.99
2019-02-10T08:33:57.264Z,96.65
2019-02-10T08:34:56.371Z,94.56
2019-02-10T08:35:56.359Z,98.88
2019-02-10T08:36:56.346Z,95.41
2019-02-10T08:37:56.335Z,93.04
2019-02-10T08:38:56.322Z,95.56
2019-02-10T08:39:56.310Z,92.56
2019-02-10T08:40:56.294Z,92.89
2019-02-10T08:41:56.284Z,92.18
2019-02-10T08:42:56.271Z,91.84
2019-02-10T08:43:56.259Z,91.65
2019-02-10T08:44:56.247Z,90.89
2019-02-10T08:45:56.238Z,90.66
2019-02-10T08:46:56.221Z,90.22
2019-02-10T08:47:56.211Z,91.03
2019-02-10T08:48:56.196Z,91.17
2019-02-10T08:49:56.188Z,89.65
2019-02-10T08:50:56.174Z,89.37
2019-02-10T08:51:56.162Z,90.32
2019-02-10T08:52:56.154Z,90.89
2019-02-10T08:53:56.137Z,90.89
2019-02-10T08:54:56.127Z,89.94
2019-02-10T08:55:56.114Z,91.37
2019-02-10T08:56:56.102Z,90.70
2019-02-10T08:57:56.088Z,92.99
2019-02-10T08:58:56.079Z,90.22
2019-02-10T08:59:56.065Z,90.22
2019-02-10T09:00:56.054Z,90.13
2019-02-10T09:01:56.041Z,89.56
2019-02-10T09:02:56.030Z,90.22
2019-02-10T09:03:56.018Z,89.65
2019-02-10T09:04:56.014Z,88.60
2019-02-10T09:05:55.996Z,89.08
2019-02-10T09:06:55.986Z,88.70
2019-02-10T09:07:55.971Z,89.04
2019-02-10T09:09:02.455Z,90.03
2019-02-10T09:09:55.947Z,88.79
2019-02-10T09:10:55.934Z,88.32
2019-02-10T09:11:55.927Z,88.13
2019-02-10T09:12:55.910Z,88.32
2019-02-10T09:13:55.898Z,88.66
2019-02-10T09:14:55.887Z,88.51
2019-02-10T09:15:55.924Z,91.17
2019-02-10T09:16:55.863Z,89.84
2019-02-10T09:17:55.854Z,89.08
2019-02-10T09:18:55.843Z,88.79
2019-02-10T09:19:55.829Z,87.94
2019-02-10T09:20:55.815Z,88.70
2019-02-10T09:21:55.804Z,87.75
2019-02-10T09:22:55.793Z,86.80
2019-02-10T09:23:55.784Z,88.79
2019-02-10T09:24:55.769Z,88.84
2019-02-10T09:25:55.764Z,89.89
2019-02-10T09:26:55.746Z,87.13
2019-02-10T09:27:55.735Z,86.46
2019-02-10T09:28:55.722Z,87.13
2019-02-10T09:29:55.712Z,86.55
2019-02-10T09:30:55.698Z,87.23
2019-02-10T09:31:55.688Z,86.18
2019-02-10T09:32:55.687Z,85.89
2019-02-10T09:33:55.664Z,86.55
2019-02-10T09:34:55.652Z,85.41
2019-02-10T09:35:55.643Z,85.22
2019-02-10T09:36:55.629Z,86.65
2019-02-10T09:37:55.618Z,85.89
2019-02-10T09:38:55.606Z,86.84
2019-02-10T09:39:55.595Z,89.32
2019-02-10T09:40:55.585Z,87.70
2019-02-10T09:41:55.574Z,85.60
2019-02-10T09:42:55.561Z,86.94
2019-02-10T09:43:55.551Z,86.84
2019-02-10T09:44:55.537Z,86.18
2019-02-10T09:45:55.527Z,85.32
2019-02-10T09:46:55.516Z,83.41
2019-02-10T09:47:55.517Z,83.41
2019-02-10T09:48:55.493Z,85.08
2019-02-10T09:49:55.483Z,84.12
2019-02-10T09:50:55.471Z,84.31
2019-02-10T09:51:55.461Z,84.03
2019-02-10T09:52:55.454Z,83.93
2019-02-10T09:53:55.439Z,83.26
2019-02-10T09:54:55.436Z,82.69
2019-02-10T09:55:55.418Z,83.65
2019-02-10T09:56:55.406Z,84.03
2019-02-10T09:57:55.397Z,84.31
2019-02-10T09:58:55.381Z,83.84
2019-02-10T09:59:55.375Z,83.45
2019-02-10T10:00:55.361Z,83.74
2019-02-10T10:01:55.353Z,85.17
2019-02-10T10:02:55.339Z,82.89
2019-02-10T10:03:55.327Z,83.45
2019-02-10T10:04:55.315Z,84.69
2019-02-10T10:05:55.307Z,86.32
2019-02-10T10:06:55.293Z,82.79
2019-02-10T10:07:55.283Z,82.79
2019-02-10T10:08:55.272Z,81.26
2019-02-10T10:09:55.263Z,81.26
2019-02-10T10:10:55.250Z,82.31
2019-02-10T10:11:55.239Z,82.60
2019-02-10T10:12:55.227Z,82.98
2019-02-10T10:13:55.217Z,84.31
2019-02-10T10:14:55.207Z,84.50
2019-02-10T10:15:55.194Z,86.32
2019-02-10T10:16:55.185Z,85.46
2019-02-10T10:17:55.173Z,83.74
2019-02-10T10:18:55.162Z,83.17
2019-02-10T10:19:55.152Z,83.17
2019-02-10T10:20:55.141Z,84.60
2019-02-10T10:21:55.130Z,84.22
2019-02-10T10:22:55.118Z,85.55
2019-02-10T10:23:55.110Z,84.41
2019-02-10T10:24:55.097Z,84.60
2019-02-10T10:25:55.087Z,84.50
2019-02-10T10:26:55.075Z,86.12
2019-02-10T10:27:55.065Z,84.98
2019-02-10T10:28:55.053Z,84.88
2019-02-10T10:29:55.042Z,82.41
2019-02-10T10:30:55.032Z,83.74
2019-02-10T10:31:55.021Z,86.03
2019-02-10T10:32:55.008Z,83.93
2019-02-10T10:33:55.002Z,83.17
2019-02-10T10:34:54.989Z,84.31
2019-02-10T10:35:54.981Z,85.17
2019-02-10T10:36:54.967Z,83.45
2019-02-10T10:37:54.956Z,83.07
2019-02-10T10:38:54.944Z,83.36
2019-02-10T10:39:54.933Z,83.36
2019-02-10T10:40:54.922Z,82.69
2019-02-10T10:41:54.911Z,81.93
2019-02-10T10:42:54.904Z,81.07
2019-02-10T10:43:54.891Z,82.03
2019-02-10T10:44:54.881Z,82.31
2019-02-10T10:45:54.876Z,82.69
2019-02-10T10:46:54.859Z,82.50
2019-02-10T10:47:54.848Z,81.55
2019-02-10T10:48:54.836Z,81.07
2019-02-10T10:49:54.826Z,82.41
2019-02-10T10:50:54.815Z,81.55
2019-02-10T10:51:54.806Z,81.36
2019-02-10T10:52:54.806Z,83.26
2019-02-10T10:53:54.783Z,82.41
2019-02-10T10:54:54.773Z,80.69
2019-02-10T10:55:54.761Z,79.93
2019-02-10T10:56:54.748Z,80.50
2019-02-10T10:57:54.741Z,80.12
2019-02-10T10:58:54.727Z,80.02
2019-02-10T10:59:54.719Z,79.83
2019-02-10T11:00:54.709Z,80.98
2019-02-10T11:01:54.696Z,81.49
2019-02-10T11:02:54.685Z,80.07
2019-02-10T11:03:54.677Z,80.64
2019-02-10T11:04:54.670Z,79.02
2019-02-10T11:05:54.655Z,79.49
2019-02-10T11:06:54.643Z,77.97
2019-02-10T11:07:54.633Z,77.78
2019-02-10T11:08:54.623Z,77.97
2019-02-10T11:09:54.610Z,76.73
2019-02-10T11:10:54.602Z,76.54
2019-02-10T11:11:54.592Z,75.49
2019-02-10T11:12:54.584Z,76.25
2019-02-10T11:13:54.592Z,77.30
2019-02-10T11:14:54.556Z,78.12
2019-02-10T11:15:54.545Z,77.26
2019-02-10T11:16:54.534Z,76.59
2019-02-10T11:17:54.526Z,76.69
2019-02-10T11:18:54.513Z,76.31
2019-02-10T11:19:54.503Z,76.21
2019-02-10T11:20:54.495Z,75.93
2019-02-10T11:21:54.483Z,76.50
2019-02-10T11:22:54.471Z,77.26
2019-02-10T11:23:54.460Z,77.36
2019-02-10T11:24:54.450Z,77.17
2019-02-10T11:25:54.437Z,77.74
2019-02-10T11:26:54.434Z,77.45
2019-02-10T11:27:54.416Z,76.79
2019-02-10T11:28:54.404Z,74.69
2019-02-10T11:29:54.393Z,74.79
2019-02-10T11:30:54.390Z,73.65
2019-02-10T11:31:54.374Z,74.21
2019-02-10T11:32:54.364Z,77.07
2019-02-10T11:33:54.355Z,76.88
2019-02-10T11:34:54.343Z,76.12
2019-02-10T11:35:54.333Z,76.79
2019-02-10T11:36:54.320Z,75.55
2019-02-10T11:37:54.311Z,78.69
2019-02-10T11:38:54.301Z,77.64
2019-02-10T11:39:54.290Z,77.36
2019-02-10T11:40:54.277Z,77.69
2019-02-10T11:41:54.268Z,77.26
2019-02-10T11:42:54.258Z,77.74
2019-02-10T11:43:54.247Z,77.45
2019-02-10T11:44:54.237Z,76.98
2019-02-10T11:45:54.225Z,76.82
2019-02-10T11:46:54.215Z,76.92
2019-02-10T11:47:54.204Z,77.69
2019-02-10T11:48:54.192Z,77.40
2019-02-10T11:49:54.183Z,75.68
2019-02-10T11:50:54.171Z,75.20
2019-02-10T11:51:54.159Z,76.16
2019-02-10T11:52:54.150Z,75.40
2019-02-10T11:53:54.140Z,74.73
2019-02-10T11:54:54.127Z,75.01
2019-02-10T11:55:54.117Z,76.54
2019-02-10T11:56:54.107Z,75.78
2019-02-10T11:57:54.094Z,75.49
2019-02-10T11:58:54.085Z,75.49
2019-02-10T11:59:54.073Z,75.49
2019-02-10T12:00:54.062Z,76.35
2019-02-10T12:01:54.051Z,75.01
2019-02-10T12:02:54.043Z,75.11
2019-02-10T12:03:54.032Z,75.11
2019-02-10T12:04:54.022Z,75.01
2019-02-10T12:05:54.011Z,74.54
2019-02-10T12:06:54.000Z,74.63
2019-02-10T12:07:53.990Z,75.11
2019-02-10T12:08:53.982Z,75.49
2019-02-10T12:09:53.968Z,75.87
2019-02-10T12:10:53.956Z,74.92
2019-02-10T12:11:53.947Z,74.82
2019-02-10T12:12:53.936Z,76.06
2019-02-10T12:13:53.925Z,77.49
2019-02-10T12:14:53.916Z,77.59
2019-02-10T12:15:53.904Z,76.92
2019-02-10T12:16:53.892Z,77.69
2019-02-10T12:17:53.883Z,77.97
2019-02-10T12:18:53.873Z,77.20
2019-02-10T12:19:53.863Z,76.54
2019-02-10T12:20:53.850Z,76.73
2019-02-10T12:21:53.842Z,77.01
2019-02-10T12:22:53.831Z,77.20
2019-02-10T12:23:53.823Z,77.69
2019-02-10T12:24:53.809Z,77.97
2019-02-10T12:25:53.799Z,77.87
2019-02-10T12:26:53.787Z,77.01
2019-02-10T12:27:53.781Z,77.01
2019-02-10T12:28:53.772Z,80.54
2019-02-10T12:29:53.756Z,78.73
2019-02-10T12:30:53.747Z,77.49
2019-02-10T12:31:53.736Z,77.40
2019-02-10T12:32:53.724Z,78.54
2019-02-10T12:33:53.716Z,79.21
2019-02-10T12:34:53.703Z,79.40
2019-02-10T12:35:58.254Z,79.88
2019-02-10T12:36:53.681Z,77.49
2019-02-10T12:37:53.672Z,75.20
2019-02-10T12:38:53.662Z,74.98
2019-02-10T12:39:59.601Z,76.40
2019-02-10T12:40:53.642Z,80.16
2019-02-10T12:41:53.633Z,81.40
2019-02-10T12:42:53.620Z,81.78
2019-02-10T12:43:53.610Z,80.92
2019-02-10T12:44:53.603Z,78.83
2019-02-10T12:45:53.590Z,81.02
2019-02-10T12:46:53.577Z,78.92
2019-02-10T12:47:53.566Z,79.49
2019-02-10T12:48:53.557Z,78.83
2019-02-10T12:49:53.545Z,77.59
2019-02-10T12:50:53.536Z,77.59
2019-02-10T12:51:53.523Z,77.11